Time;durP1;ratioP1;P1;durP2;ratioP2;P2;SDS_P1;SDS_P2;PMS_P1;PMS_P2;Temp;Humidity;BMP_temperature;BMP_pressure;BME280_temperature;BME280_humidity;BME280_pressure;Samples;Min_cycle;Max_cycle;Signal;HPM_P1;HPM_P2
2023/12/13 00:02:07;;;;;;;51.35;20.55;;;8.70;99.90;;;;;;5039437;28;20036;-67
2023/12/13 00:04:33;;;;;;;47.88;19.50;;;8.70;99.90;;;;;;5046110;28;20045;-67
2023/12/13 00:06:59;;;;;;;56.58;20.95;;;8.60;99.90;;;;;;5049905;28;20384;-66
2023/12/13 00:09:24;;;;;;;49.50;20.30;;;8.60;99.90;;;;;;5042340;28;20037;-66
2023/12/13 00:11:50;;;;;;;43.28;20.33;;;8.60;99.90;;;;;;5023083;28;20296;-67
2023/12/13 00:14:17;;;;;;;46.03;20.50;;;8.50;99.90;;;;;;5051686;28;20087;-66
2023/12/13 00:16:42;;;;;;;47.95;20.77;;;8.50;99.90;;;;;;5053741;28;20104;-66
2023/12/13 00:19:08;;;;;;;47.63;20.70;;;8.50;99.90;;;;;;5057414;28;20154;-66
2023/12/13 00:21:34;;;;;;;53.35;20.95;;;8.50;99.90;;;;;;5057089;28;20067;-66
2023/12/13 00:23:59;;;;;;;55.10;20.15;;;8.40;99.90;;;;;;5052970;28;20041;-67
2023/12/13 00:26:25;;;;;;;41.58;20.20;;;8.50;99.90;;;;;;5029316;28;20041;-66
2023/12/13 00:28:50;;;;;;;45.95;20.45;;;8.40;99.90;;;;;;5053004;28;20029;-66
2023/12/13 00:31:16;;;;;;;47.45;19.73;;;8.40;99.90;;;;;;5052673;28;20072;-66
2023/12/13 00:33:42;;;;;;;39.97;18.92;;;8.30;99.90;;;;;;5053054;28;20033;-66
2023/12/13 00:36:08;;;;;;;47.25;19.83;;;8.30;99.90;;;;;;5062067;28;20043;-66
2023/12/13 00:38:34;;;;;;;45.00;18.38;;;8.20;99.90;;;;;;5059467;28;20055;-66
2023/12/13 00:41:00;;;;;;;41.05;18.98;;;8.20;99.90;;;;;;5030386;28;20056;-66
2023/12/13 00:43:26;;;;;;;46.10;17.83;;;8.20;99.90;;;;;;5037930;28;20051;-66
2023/12/13 00:45:52;;;;;;;38.28;17.65;;;8.10;99.90;;;;;;5060667;28;20067;-65
2023/12/13 00:48:17;;;;;;;33.90;16.92;;;8.20;99.90;;;;;;5052509;28;20495;-67
2023/12/13 00:50:43;;;;;;;41.53;18.42;;;8.20;99.90;;;;;;5053047;28;20043;-67
2023/12/13 00:53:09;;;;;;;40.42;18.50;;;8.20;99.90;;;;;;5035060;28;20051;-66
2023/12/13 00:55:34;;;;;;;35.55;17.80;;;8.20;99.90;;;;;;5052282;28;20437;-66
2023/12/13 00:58:00;;;;;;;36.47;16.50;;;8.20;99.90;;;;;;5052738;28;20037;-66
2023/12/13 01:00:26;;;;;;;34.83;16.20;;;8.30;99.90;;;;;;5054001;28;20128;-66
2023/12/13 01:02:52;;;;;;;36.40;16.45;;;8.30;99.90;;;;;;5054423;28;20090;-66
2023/12/13 01:05:18;;;;;;;36.03;16.63;;;8.30;99.90;;;;;;5052464;28;20041;-65
2023/12/13 01:07:44;;;;;;;41.55;16.17;;;8.30;99.90;;;;;;5052695;28;20491;-65
2023/12/13 01:10:09;;;;;;;32.38;15.70;;;8.30;99.90;;;;;;5050556;28;20051;-66
2023/12/13 01:12:35;;;;;;;34.72;15.02;;;8.30;99.90;;;;;;5033981;28;20037;-67
2023/12/13 01:15:01;;;;;;;28.38;13.80;;;8.30;99.90;;;;;;5052658;28;20045;-68
2023/12/13 01:17:26;;;;;;;30.13;13.55;;;8.30;99.90;;;;;;5054565;28;20482;-65
2023/12/13 01:19:52;;;;;;;28.58;12.75;;;8.30;99.90;;;;;;5057040;28;20034;-66
2023/12/13 01:22:18;;;;;;;34.88;13.52;;;8.30;99.90;;;;;;5051744;28;20049;-70
2023/12/13 01:24:44;;;;;;;23.10;11.98;;;8.30;99.90;;;;;;5051174;28;20060;-66
2023/12/13 01:27:10;;;;;;;28.60;12.63;;;8.30;99.90;;;;;;5035137;28;20522;-66
2023/12/13 01:29:35;;;;;;;29.33;12.85;;;8.20;99.90;;;;;;5051884;28;20120;-65
2023/12/13 01:32:02;;;;;;;25.27;12.07;;;8.20;99.90;;;;;;5051915;28;20084;-66
2023/12/13 01:34:29;;;;;;;33.53;12.23;;;8.20;99.90;;;;;;5043246;28;20036;-68
2023/12/13 01:36:54;;;;;;;26.70;11.90;;;8.20;99.90;;;;;;5034233;28;20043;-66
2023/12/13 01:39:20;;;;;;;24.08;11.65;;;8.20;99.90;;;;;;5051349;28;20037;-67
2023/12/13 01:41:45;;;;;;;26.77;11.95;;;8.20;99.90;;;;;;5044215;28;20106;-65
2023/12/13 01:44:11;;;;;;;23.30;11.20;;;8.20;99.90;;;;;;5053689;28;20124;-65
2023/12/13 01:46:37;;;;;;;21.13;10.10;;;8.20;99.90;;;;;;5052009;28;20119;-66
2023/12/13 01:49:06;;;;;;;22.73;9.95;;;8.30;99.90;;;;;;5032782;28;20074;-65
2023/12/13 01:51:33;;;;;;;21.65;9.95;;;8.30;99.90;;;;;;5041178;28;20051;-65
2023/12/13 01:54:00;;;;;;;21.27;10.10;;;8.30;99.90;;;;;;5050963;28;20135;-66
2023/12/13 01:56:26;;;;;;;19.20;9.18;;;8.20;99.90;;;;;;5051774;28;20041;-66
2023/12/13 01:58:52;;;;;;;21.42;10.77;;;8.20;99.90;;;;;;5042270;28;20044;-65
2023/12/13 02:01:17;;;;;;;21.77;10.25;;;8.20;99.90;;;;;;5048734;28;20040;-65
2023/12/13 02:03:43;;;;;;;18.58;9.35;;;8.20;99.90;;;;;;5051383;28;20537;-65
2023/12/13 02:06:08;;;;;;;19.85;9.55;;;8.30;99.90;;;;;;5050236;28;20379;-68
2023/12/13 02:08:34;;;;;;;23.05;9.82;;;8.20;99.90;;;;;;5051447;28;20175;-66
2023/12/13 02:11:00;;;;;;;20.02;10.02;;;8.30;99.90;;;;;;5033219;28;20395;-65
2023/12/13 02:13:25;;;;;;;22.40;11.38;;;8.20;99.90;;;;;;5050933;28;20037;-65
2023/12/13 02:15:51;;;;;;;21.30;10.05;;;8.20;99.90;;;;;;5051823;28;20051;-67
2023/12/13 02:18:17;;;;;;;19.75;9.88;;;8.20;99.90;;;;;;5065816;28;20418;-65
2023/12/13 02:20:45;;;;;;;21.80;10.20;;;8.20;99.90;;;;;;5050871;28;20501;-67
2023/12/13 02:23:11;;;;;;;22.00;10.07;;;8.20;99.90;;;;;;5050799;28;20044;-65
2023/12/13 02:25:52;;;;;;;23.13;10.63;;;8.20;99.90;;;;;;5024164;28;20044;-66
2023/12/13 02:28:18;;;;;;;23.90;10.35;;;8.20;99.90;;;;;;5050618;28;20533;-67
2023/12/13 02:30:46;;;;;;;22.85;10.23;;;8.20;99.90;;;;;;5050698;28;20557;-67
2023/12/13 02:33:11;;;;;;;21.08;10.57;;;8.20;99.90;;;;;;5023809;28;20060;-67
2023/12/13 02:35:37;;;;;;;22.52;10.77;;;8.20;99.90;;;;;;5050218;28;20033;-66
2023/12/13 02:38:02;;;;;;;24.77;10.55;;;8.20;99.90;;;;;;5032839;28;20040;-65
2023/12/13 02:40:28;;;;;;;20.77;9.95;;;8.20;99.90;;;;;;5051159;28;20044;-67
2023/12/13 02:42:54;;;;;;;22.40;10.88;;;8.20;99.90;;;;;;5039999;28;20033;-66
2023/12/13 02:45:20;;;;;;;19.02;10.05;;;8.20;99.90;;;;;;5050421;28;20044;-66
2023/12/13 02:47:46;;;;;;;20.00;10.40;;;8.20;99.90;;;;;;5050827;28;20041;-67
2023/12/13 02:50:12;;;;;;;22.17;10.18;;;8.20;99.90;;;;;;5055282;28;20054;-65
2023/12/13 02:52:39;;;;;;;22.92;10.75;;;8.20;99.90;;;;;;5053236;28;20069;-68
2023/12/13 02:55:06;;;;;;;19.85;10.20;;;8.20;99.90;;;;;;5050771;28;20037;-66
2023/12/13 02:57:32;;;;;;;22.02;10.48;;;8.20;99.90;;;;;;5049441;28;20510;-65
2023/12/13 02:59:57;;;;;;;21.55;11.45;;;8.20;99.90;;;;;;5042639;28;20040;-66
2023/12/13 03:02:24;;;;;;;22.08;10.65;;;8.20;99.90;;;;;;5051171;28;20517;-66
2023/12/13 03:04:50;;;;;;;23.33;10.85;;;8.20;99.90;;;;;;5050472;28;20051;-65
2023/12/13 03:07:15;;;;;;;21.98;10.48;;;8.20;99.90;;;;;;5050786;28;20045;-66
2023/12/13 03:09:41;;;;;;;23.75;11.30;;;8.20;99.90;;;;;;5052220;28;20037;-66
2023/12/13 03:12:07;;;;;;;21.23;10.55;;;8.20;99.90;;;;;;5050242;28;20076;-66
2023/12/13 03:14:32;;;;;;;21.48;10.35;;;8.20;99.90;;;;;;5045613;28;20039;-65
2023/12/13 03:16:58;;;;;;;23.00;11.43;;;8.20;99.90;;;;;;5045938;28;20037;-66
2023/12/13 03:19:24;;;;;;;25.80;11.40;;;8.30;99.90;;;;;;5049781;28;20036;-66
2023/12/13 03:21:49;;;;;;;20.50;10.93;;;8.30;99.90;;;;;;5032630;28;20173;-66
2023/12/13 03:24:15;;;;;;;23.33;11.48;;;8.20;99.90;;;;;;5047447;28;20044;-65
2023/12/13 03:26:40;;;;;;;22.67;11.48;;;8.20;99.90;;;;;;5051851;28;20163;-66
2023/12/13 03:29:06;;;;;;;25.23;11.68;;;8.30;99.90;;;;;;5050273;28;20403;-65
2023/12/13 03:31:31;;;;;;;22.25;11.43;;;8.30;99.90;;;;;;5047509;28;20063;-67
2023/12/13 03:33:57;;;;;;;24.75;12.02;;;8.30;99.90;;;;;;5049324;28;20406;-65
2023/12/13 03:36:22;;;;;;;22.30;11.50;;;8.30;99.90;;;;;;5049935;28;20402;-66
2023/12/13 03:38:48;;;;;;;22.38;12.00;;;8.30;99.90;;;;;;5032471;28;20041;-65
2023/12/13 03:41:14;;;;;;;26.40;12.77;;;8.30;99.90;;;;;;5043802;28;20034;-66
2023/12/13 03:43:39;;;;;;;24.48;12.00;;;8.30;99.90;;;;;;5042737;28;20041;-66
2023/12/13 03:46:05;;;;;;;25.02;12.15;;;8.30;99.90;;;;;;5049995;28;20048;-66
2023/12/13 03:48:31;;;;;;;26.10;12.15;;;8.40;99.90;;;;;;5052737;28;20037;-66
2023/12/13 03:50:57;;;;;;;23.40;12.02;;;8.40;99.90;;;;;;5043204;28;20079;-65
2023/12/13 03:53:23;;;;;;;31.15;13.23;;;8.40;99.90;;;;;;5053513;28;20041;-66
2023/12/13 03:55:48;;;;;;;24.48;12.55;;;8.40;99.90;;;;;;5054318;28;20069;-66
2023/12/13 03:58:14;;;;;;;24.75;12.43;;;8.40;99.90;;;;;;5062160;28;20460;-67
2023/12/13 04:00:39;;;;;;;25.92;12.30;;;8.50;99.90;;;;;;5058569;28;20064;-67
2023/12/13 04:03:05;;;;;;;22.48;11.43;;;8.40;99.90;;;;;;5035562;28;20055;-65
2023/12/13 04:05:31;;;;;;;24.83;12.20;;;8.40;99.90;;;;;;5042012;28;20375;-65
2023/12/13 04:07:56;;;;;;;21.23;11.85;;;8.50;99.90;;;;;;5053404;28;20584;-66
2023/12/13 04:10:22;;;;;;;24.52;11.77;;;8.40;99.90;;;;;;5043297;28;20061;-66
2023/12/13 04:12:47;;;;;;;29.35;12.40;;;8.40;99.90;;;;;;5037616;28;20037;-66
2023/12/13 04:15:13;;;;;;;27.33;12.65;;;8.50;99.90;;;;;;5053508;28;20079;-65
2023/12/13 04:17:38;;;;;;;25.05;11.95;;;8.40;99.90;;;;;;5053385;28;20760;-66
2023/12/13 04:20:05;;;;;;;24.80;12.77;;;8.40;99.90;;;;;;5053570;28;20044;-66
2023/12/13 04:22:31;;;;;;;25.00;11.85;;;8.40;99.90;;;;;;5047849;28;20041;-66
2023/12/13 04:24:56;;;;;;;24.45;12.43;;;8.40;99.90;;;;;;5052931;28;20041;-66
2023/12/13 04:27:22;;;;;;;23.63;12.70;;;8.30;99.90;;;;;;5053412;28;20068;-66
2023/12/13 04:29:47;;;;;;;24.17;12.20;;;8.30;99.90;;;;;;5032648;28;20037;-66
2023/12/13 04:32:13;;;;;;;23.23;13.02;;;8.30;99.90;;;;;;5052322;28;20041;-66
2023/12/13 04:34:38;;;;;;;32.75;13.95;;;8.30;99.90;;;;;;5053136;28;20032;-65
2023/12/13 04:37:04;;;;;;;28.05;13.52;;;8.30;99.90;;;;;;5052768;28;20086;-65
2023/12/13 04:39:30;;;;;;;32.03;14.13;;;8.30;99.90;;;;;;5028841;28;20034;-68
2023/12/13 04:41:55;;;;;;;28.45;13.43;;;8.30;99.90;;;;;;5040431;28;20459;-67
2023/12/13 04:44:21;;;;;;;27.60;13.00;;;8.30;99.90;;;;;;5032785;28;20457;-68
2023/12/13 04:46:46;;;;;;;27.60;13.40;;;8.30;99.90;;;;;;5042588;28;20507;-68
2023/12/13 04:49:12;;;;;;;25.90;12.90;;;8.30;99.90;;;;;;5026180;28;20075;-68
2023/12/13 04:51:37;;;;;;;25.35;13.35;;;8.30;99.90;;;;;;5052905;28;20068;-68
2023/12/13 04:54:03;;;;;;;26.15;12.73;;;8.30;99.90;;;;;;5051729;28;20036;-66
2023/12/13 04:56:28;;;;;;;34.22;13.60;;;8.20;99.90;;;;;;5057394;28;20036;-68
2023/12/13 04:58:54;;;;;;;28.02;12.55;;;8.20;99.90;;;;;;5057647;28;20033;-68
2023/12/13 05:01:19;;;;;;;28.58;12.38;;;8.20;99.90;;;;;;5052281;28;20036;-67
2023/12/13 05:03:45;;;;;;;28.27;13.00;;;8.20;99.90;;;;;;5046208;28;20124;-68
2023/12/13 05:06:11;;;;;;;33.33;13.13;;;8.20;99.90;;;;;;5033845;28;20044;-68
2023/12/13 05:08:36;;;;;;;25.48;13.02;;;8.20;99.90;;;;;;5052703;28;20036;-68
2023/12/13 05:11:02;;;;;;;29.73;12.00;;;8.20;99.90;;;;;;5032350;28;20717;-67
2023/12/13 05:13:27;;;;;;;27.52;13.15;;;8.20;99.90;;;;;;5037793;28;20534;-68
2023/12/13 05:15:53;;;;;;;32.70;12.88;;;8.30;99.90;;;;;;5051862;28;20025;-68
2023/12/13 05:18:19;;;;;;;30.45;13.43;;;8.20;99.90;;;;;;5052551;28;20041;-68
2023/12/13 05:20:45;;;;;;;27.15;12.25;;;8.20;99.90;;;;;;5039260;28;20041;-68
2023/12/13 05:23:11;;;;;;;28.58;12.50;;;8.20;99.90;;;;;;5033734;28;20113;-68
2023/12/13 05:25:38;;;;;;;25.15;13.10;;;8.20;99.90;;;;;;5052398;28;20495;-68
2023/12/13 05:28:04;;;;;;;27.70;13.45;;;8.20;99.90;;;;;;5051255;28;20041;-68
2023/12/13 05:30:29;;;;;;;24.70;12.38;;;8.30;99.90;;;;;;5062482;28;20055;-67
2023/12/13 05:32:56;;;;;;;25.60;12.98;;;8.20;99.90;;;;;;5051635;28;20037;-67
2023/12/13 05:35:21;;;;;;;30.58;14.10;;;8.30;99.90;;;;;;5034518;28;20208;-67
2023/12/13 05:37:47;;;;;;;29.42;13.20;;;8.30;99.90;;;;;;5052499;28;20444;-67
2023/12/13 05:40:13;;;;;;;29.48;13.45;;;8.30;99.90;;;;;;5047797;28;20033;-67
2023/12/13 05:42:39;;;;;;;27.58;12.57;;;8.20;99.90;;;;;;5049774;28;20045;-67
2023/12/13 05:45:05;;;;;;;26.50;12.30;;;8.20;99.90;;;;;;5057042;28;20119;-65
2023/12/13 05:47:32;;;;;;;27.80;13.13;;;8.20;99.90;;;;;;5059426;28;20044;-67
2023/12/13 05:49:57;;;;;;;30.27;13.00;;;8.20;99.90;;;;;;5051788;28;20040;-68
2023/12/13 05:52:23;;;;;;;27.52;13.13;;;8.20;99.90;;;;;;5051322;28;20037;-67
2023/12/13 05:54:49;;;;;;;29.63;13.07;;;8.10;99.90;;;;;;5049328;28;20033;-68
2023/12/13 05:57:14;;;;;;;29.30;13.40;;;8.10;99.90;;;;;;5054922;28;20131;-67
2023/12/13 05:59:40;;;;;;;30.13;13.63;;;8.10;99.90;;;;;;5028717;28;20048;-67
2023/12/13 06:02:05;;;;;;;27.75;12.77;;;8.10;99.90;;;;;;5035063;28;20107;-68
2023/12/13 06:04:31;;;;;;;24.33;12.70;;;8.10;99.90;;;;;;5050579;28;20472;-67
2023/12/13 06:06:57;;;;;;;26.98;12.98;;;8.10;99.90;;;;;;5051251;28;20091;-68
2023/12/13 06:09:23;;;;;;;24.95;12.88;;;8.20;99.90;;;;;;5051229;28;20037;-68
2023/12/13 06:11:48;;;;;;;27.75;12.75;;;8.20;99.90;;;;;;5052836;28;20472;-68
2023/12/13 06:14:14;;;;;;;27.60;12.23;;;8.20;99.90;;;;;;5052767;28;20663;-68
2023/12/13 06:16:39;;;;;;;26.55;12.70;;;8.20;99.90;;;;;;5027656;28;20048;-67
2023/12/13 06:19:06;;;;;;;26.05;12.40;;;8.20;99.90;;;;;;5032009;28;20036;-68
2023/12/13 06:21:33;;;;;;;27.67;13.27;;;8.20;99.90;;;;;;5050846;28;20044;-67
2023/12/13 06:24:00;;;;;;;29.60;12.02;;;8.20;99.90;;;;;;5032710;28;20087;-68
2023/12/13 06:26:26;;;;;;;29.17;12.63;;;8.20;99.90;;;;;;5040698;28;20044;-67
2023/12/13 06:28:52;;;;;;;31.08;12.48;;;8.20;99.90;;;;;;5042223;28;20033;-67
2023/12/13 06:31:18;;;;;;;30.00;13.35;;;8.20;99.90;;;;;;5050237;28;20053;-68
2023/12/13 06:33:43;;;;;;;26.65;12.40;;;8.20;99.90;;;;;;5037338;28;20045;-68
2023/12/13 06:36:09;;;;;;;25.85;11.68;;;8.30;99.90;;;;;;5044246;28;20041;-68
2023/12/13 06:38:35;;;;;;;26.92;12.65;;;8.30;99.90;;;;;;5050350;28;20139;-68
2023/12/13 06:41:00;;;;;;;27.95;12.25;;;8.30;99.90;;;;;;5029549;28;20029;-67
2023/12/13 06:46:01;;;;;;;27.83;12.73;;;8.30;99.90;;;;;;5538430;22;20465;-68
2023/12/13 06:48:28;;;;;;;23.52;12.65;;;8.30;99.90;;;;;;5070435;28;20036;-68
2023/12/13 06:50:53;;;;;;;22.42;11.68;;;8.30;99.90;;;;;;5049892;28;20112;-68
2023/12/13 06:57:01;;;;;;;30.08;11.52;;;8.30;99.90;;;;;;5140034;22;20075;-68
2023/12/13 06:59:26;;;;;;;25.27;11.85;;;8.30;99.90;;;;;;5062605;28;20060;-69
2023/12/13 07:01:52;;;;;;;23.70;11.90;;;8.30;99.90;;;;;;5064252;28;20037;-70
2023/12/13 07:04:18;;;;;;;22.33;11.35;;;8.30;99.90;;;;;;5070440;28;20040;-69
2023/12/13 07:06:44;;;;;;;32.88;11.15;;;8.30;99.90;;;;;;5048797;28;20041;-69
2023/12/13 07:09:10;;;;;;;27.38;11.82;;;8.30;99.90;;;;;;5062163;28;20565;-69
2023/12/13 07:11:36;;;;;;;25.75;11.25;;;8.30;99.90;;;;;;5038720;28;20040;-69
2023/12/13 07:14:02;;;;;;;24.83;12.13;;;8.30;99.90;;;;;;5119382;22;20032;-69
2023/12/13 07:16:27;;;;;;;24.85;11.32;;;8.30;99.90;;;;;;5063803;28;20072;-69
2023/12/13 07:18:53;;;;;;;21.95;11.68;;;8.30;99.90;;;;;;5058579;28;20040;-68
2023/12/13 07:21:18;;;;;;;24.42;11.70;;;8.30;99.90;;;;;;5069815;28;20035;-69
2023/12/13 07:23:44;;;;;;;26.17;11.23;;;8.40;99.90;;;;;;5053770;28;20509;-69
2023/12/13 07:26:10;;;;;;;26.27;12.43;;;8.40;99.90;;;;;;5119752;22;20132;-69
2023/12/13 07:28:35;;;;;;;25.58;11.75;;;8.30;99.90;;;;;;5016855;28;20038;-68
2023/12/13 07:31:04;;;;;;;26.92;11.20;;;8.40;99.90;;;;;;5033008;28;20022;-68
2023/12/13 07:33:31;;;;;;;27.70;11.70;;;8.40;99.90;;;;;;5023847;28;20099;-69
2023/12/13 07:35:56;;;;;;;28.15;11.50;;;8.40;99.90;;;;;;5028597;28;20049;-69
2023/12/13 07:38:22;;;;;;;28.85;12.02;;;8.40;99.90;;;;;;5033994;28;20403;-69
2023/12/13 07:40:55;;;;;;;29.02;12.02;;;8.40;99.90;;;;;;5051839;28;20033;-68
2023/12/13 07:43:24;;;;;;;24.67;12.00;;;8.40;99.90;;;;;;5026129;28;20037;-68
2023/12/13 07:45:52;;;;;;;27.70;12.27;;;8.40;99.90;;;;;;5033651;28;20491;-68
2023/12/13 07:48:22;;;;;;;26.45;12.07;;;8.40;99.90;;;;;;5034228;28;20041;-68
2023/12/13 07:53:24;;;;;;;25.52;12.27;;;8.40;99.90;;;;;;5389543;22;20056;-70
2023/12/13 07:55:50;;;;;;;28.65;12.20;;;8.40;99.90;;;;;;5036048;28;20045;-68
2023/12/13 07:58:15;;;;;;;26.20;12.40;;;8.40;99.90;;;;;;5038373;28;20041;-68
2023/12/13 08:00:41;;;;;;;29.60;11.80;;;8.40;99.90;;;;;;5029487;28;20036;-69
2023/12/13 08:03:06;;;;;;;26.50;11.95;;;8.50;99.90;;;;;;5169448;22;20041;-70
2023/12/13 08:05:32;;;;;;;25.52;12.10;;;8.50;99.90;;;;;;4991529;28;20038;-69
2023/12/13 08:07:58;;;;;;;25.27;12.15;;;8.50;99.90;;;;;;5005211;28;20031;-68
2023/12/13 08:15:34;;;;;;;29.45;11.60;;;8.50;99.90;;;;;;6149911;22;20060;-69
2023/12/13 08:18:00;;;;;;;29.33;12.25;;;8.50;99.90;;;;;;4998806;28;20125;-68
2023/12/13 08:20:29;;;;;;;28.33;12.23;;;8.50;99.90;;;;;;5015551;28;20132;-68
2023/12/13 08:22:58;;;;;;;27.95;12.18;;;8.50;99.90;;;;;;5032537;28;20045;-68
2023/12/13 08:25:24;;;;;;;29.65;12.63;;;8.50;99.90;;;;;;5028302;28;20038;-69
2023/12/13 08:27:49;;;;;;;29.00;13.10;;;8.60;99.90;;;;;;5014391;28;20049;-69
2023/12/13 08:30:15;;;;;;;34.03;13.82;;;8.60;99.90;;;;;;5033411;28;20076;-68
2023/12/13 08:32:40;;;;;;;34.72;14.57;;;8.60;99.90;;;;;;5007483;28;20033;-69
2023/12/13 08:35:06;;;;;;;29.35;14.85;;;8.60;99.90;;;;;;5012435;28;20076;-69
2023/12/13 08:37:32;;;;;;;33.20;13.68;;;8.60;99.90;;;;;;5015685;28;20045;-69
2023/12/13 08:39:57;;;;;;;42.50;14.90;;;8.60;99.90;;;;;;5059890;23;20509;-67
2023/12/13 08:42:23;;;;;;;44.80;14.80;;;8.70;99.90;;;;;;5016030;28;20050;-69
2023/12/13 08:44:49;;;;;;;34.55;14.35;;;8.70;99.90;;;;;;5012986;28;20041;-68
2023/12/13 08:47:14;;;;;;;36.83;14.10;;;8.70;99.90;;;;;;4996148;28;20048;-68
2023/12/13 08:49:40;;;;;;;31.58;13.02;;;8.70;99.90;;;;;;5015968;28;20376;-68
2023/12/13 08:52:06;;;;;;;30.88;13.30;;;8.80;99.90;;;;;;4998490;28;20077;-68
2023/12/13 08:54:33;;;;;;;31.08;13.15;;;8.80;99.90;;;;;;5017618;28;20043;-68
2023/12/13 08:56:58;;;;;;;33.58;13.13;;;8.80;99.90;;;;;;5011303;28;20038;-68
2023/12/13 08:59:24;;;;;;;31.23;13.52;;;8.80;99.90;;;;;;5015244;28;20061;-68
2023/12/13 09:01:49;;;;;;;32.05;12.95;;;8.80;99.90;;;;;;4988788;28;20038;-69
2023/12/13 09:04:15;;;;;;;31.85;13.05;;;8.90;99.90;;;;;;5005912;28;20141;-68
2023/12/13 09:06:40;;;;;;;25.73;12.50;;;8.90;99.90;;;;;;4995841;28;20030;-67
2023/12/13 09:09:09;;;;;;;28.33;12.85;;;8.90;99.90;;;;;;5013292;28;20115;-68
2023/12/13 09:11:35;;;;;;;26.00;12.35;;;8.90;99.90;;;;;;5004874;28;20194;-68
2023/12/13 09:14:00;;;;;;;28.75;13.13;;;9.00;99.90;;;;;;5011976;28;20491;-67
2023/12/13 09:16:26;;;;;;;33.42;13.30;;;9.00;99.90;;;;;;5012457;28;20041;-65
2023/12/13 09:18:51;;;;;;;28.05;12.27;;;9.00;99.90;;;;;;5001748;28;20045;-68
2023/12/13 09:21:17;;;;;;;28.45;12.10;;;9.00;99.90;;;;;;5011316;28;20064;-68
2023/12/13 09:23:43;;;;;;;30.42;11.18;;;9.00;99.90;;;;;;5005119;28;20055;-67
2023/12/13 09:26:12;;;;;;;26.27;12.27;;;9.10;99.90;;;;;;5011966;28;20048;-68
2023/12/13 09:28:37;;;;;;;30.65;11.45;;;9.10;99.90;;;;;;5012690;28;20120;-69
2023/12/13 09:31:07;;;;;;;21.90;11.55;;;9.10;99.90;;;;;;5015799;28;20539;-68
2023/12/13 09:33:33;;;;;;;25.33;11.30;;;9.10;99.90;;;;;;5008850;28;20046;-67
2023/12/13 09:35:59;;;;;;;22.08;11.63;;;9.20;99.90;;;;;;5003016;28;20033;-68
2023/12/13 09:38:24;;;;;;;28.90;11.45;;;9.20;99.90;;;;;;4989620;28;20116;-68
2023/12/13 09:40:51;;;;;;;22.77;11.60;;;9.20;99.90;;;;;;5013407;28;20033;-68
2023/12/13 09:43:17;;;;;;;34.75;12.27;;;9.20;99.90;;;;;;5013568;28;20080;-69
2023/12/13 09:45:44;;;;;;;24.25;11.68;;;9.30;99.90;;;;;;5009225;28;20085;-68
2023/12/13 09:48:12;;;;;;;25.80;12.15;;;9.30;99.90;;;;;;5012876;28;20079;-68
2023/12/13 09:50:38;;;;;;;27.30;11.43;;;9.30;99.90;;;;;;5011909;28;20165;-69
2023/12/13 09:53:06;;;;;;;25.70;11.55;;;9.30;99.90;;;;;;5001985;28;20327;-69
2023/12/13 09:55:32;;;;;;;24.02;11.43;;;9.40;99.90;;;;;;5009788;28;20030;-68
2023/12/13 09:57:58;;;;;;;27.50;11.98;;;9.40;99.90;;;;;;4994114;28;20038;-69
2023/12/13 10:00:23;;;;;;;24.10;11.63;;;9.30;99.90;;;;;;5013151;28;20468;-68
2023/12/13 10:02:49;;;;;;;28.88;11.20;;;9.30;99.90;;;;;;5011101;28;20069;-69
2023/12/13 10:05:17;;;;;;;25.23;11.52;;;9.40;99.90;;;;;;5011916;28;20034;-68
2023/12/13 10:07:43;;;;;;;21.83;11.60;;;9.40;99.90;;;;;;4995710;28;20045;-68
2023/12/13 10:10:09;;;;;;;27.67;11.73;;;9.40;99.90;;;;;;5015767;28;20030;-67
2023/12/13 10:12:36;;;;;;;29.23;11.55;;;9.50;99.90;;;;;;5008687;28;20065;-68
2023/12/13 10:15:10;;;;;;;28.48;12.15;;;9.40;99.90;;;;;;5015224;28;20045;-67
2023/12/13 10:17:35;;;;;;;25.52;11.55;;;9.40;99.90;;;;;;5010608;28;20428;-68
2023/12/13 10:20:02;;;;;;;28.38;11.73;;;9.50;99.90;;;;;;5010800;28;20040;-68
2023/12/13 10:22:28;;;;;;;26.92;12.15;;;9.50;99.90;;;;;;5006669;28;20058;-69
2023/12/13 10:24:54;;;;;;;29.80;12.27;;;9.50;99.90;;;;;;5005207;28;20037;-69
2023/12/13 10:27:20;;;;;;;27.77;12.23;;;9.60;99.90;;;;;;5010837;28;20125;-68
2023/12/13 10:29:47;;;;;;;30.95;13.00;;;9.60;99.90;;;;;;5006241;28;20502;-69
2023/12/13 10:32:12;;;;;;;29.40;12.52;;;9.60;99.90;;;;;;5009378;28;20042;-67
2023/12/13 10:34:38;;;;;;;26.00;11.65;;;9.60;99.90;;;;;;5003925;28;20086;-68
2023/12/13 10:37:06;;;;;;;20.90;11.95;;;9.70;99.90;;;;;;5015619;28;20048;-69
2023/12/13 10:39:32;;;;;;;36.33;12.48;;;9.70;99.90;;;;;;5010284;28;20050;-68
2023/12/13 10:42:00;;;;;;;26.25;12.52;;;9.70;99.90;;;;;;5022745;28;20392;-68
2023/12/13 10:44:30;;;;;;;27.60;12.38;;;9.70;99.90;;;;;;5012307;28;20046;-68
2023/12/13 10:46:59;;;;;;;24.30;12.20;;;9.70;99.90;;;;;;5002383;28;20468;-69
2023/12/13 10:49:26;;;;;;;22.60;11.85;;;9.70;99.90;;;;;;5008818;28;20124;-69
2023/12/13 10:51:52;;;;;;;28.77;12.43;;;9.80;99.90;;;;;;5011010;28;20066;-69
2023/12/13 10:54:18;;;;;;;26.10;13.07;;;9.70;99.90;;;;;;4993383;28;20407;-69
2023/12/13 10:56:44;;;;;;;21.02;12.18;;;9.80;99.90;;;;;;5010638;28;20044;-69
2023/12/13 10:59:11;;;;;;;24.08;12.52;;;9.80;99.90;;;;;;5010339;28;20582;-69
2023/12/13 11:01:39;;;;;;;21.95;11.27;;;9.80;99.90;;;;;;5007848;28;20038;-69
2023/12/13 11:04:08;;;;;;;25.10;12.15;;;9.80;99.90;;;;;;5010300;28;20112;-68
2023/12/13 11:06:36;;;;;;;24.35;12.35;;;9.90;99.90;;;;;;4992737;28;20108;-67
2023/12/13 11:09:13;;;;;;;28.38;12.32;;;9.90;99.90;;;;;;5007383;28;20073;-69
2023/12/13 11:11:40;;;;;;;23.40;12.40;;;9.90;99.90;;;;;;5005623;28;20077;-68
2023/12/13 11:14:06;;;;;;;28.35;12.70;;;10.00;99.90;;;;;;5009807;28;20088;-67
2023/12/13 11:16:42;;;;;;;23.05;12.68;;;10.00;99.90;;;;;;5003125;28;20764;-68
2023/12/13 11:19:11;;;;;;;25.30;13.07;;;10.10;99.90;;;;;;4982279;28;20078;-69
2023/12/13 11:21:39;;;;;;;33.38;14.00;;;10.10;99.90;;;;;;5007695;28;20030;-69
2023/12/13 11:24:14;;;;;;;28.20;14.27;;;10.10;99.90;;;;;;5010090;28;20033;-69
2023/12/13 11:26:58;;;;;;;29.83;13.85;;;10.10;99.90;;;;;;5002573;28;20038;-68
2023/12/13 11:29:28;;;;;;;25.08;12.57;;;10.10;99.90;;;;;;5006052;28;20042;-69
2023/12/13 11:31:54;;;;;;;25.05;13.52;;;10.10;99.90;;;;;;5013916;28;20104;-68
2023/12/13 11:34:47;;;;;;;24.50;13.20;;;10.20;99.90;;;;;;5014754;28;20492;-67
2023/12/13 11:37:14;;;;;;;26.40;12.02;;;10.20;99.90;;;;;;4989243;28;20066;-69
2023/12/13 11:39:42;;;;;;;25.73;13.15;;;10.10;99.90;;;;;;5006159;28;20463;-68
2023/12/13 11:42:09;;;;;;;26.23;13.23;;;10.20;99.90;;;;;;5011061;28;20034;-65
2023/12/13 11:44:37;;;;;;;26.35;12.35;;;10.20;99.90;;;;;;5007347;28;20099;-68
2023/12/13 11:47:04;;;;;;;23.20;12.75;;;10.10;99.90;;;;;;5011945;28;20053;-69
2023/12/13 11:49:29;;;;;;;25.30;12.43;;;10.10;99.90;;;;;;4992570;28;20180;-68
2023/12/13 11:51:56;;;;;;;24.27;12.93;;;10.10;99.90;;;;;;4992811;28;20128;-68
2023/12/13 11:54:23;;;;;;;23.13;12.88;;;10.10;99.90;;;;;;4991406;28;20049;-69
2023/12/13 11:56:48;;;;;;;26.23;13.38;;;10.10;99.90;;;;;;5010035;28;20042;-68
2023/12/13 11:59:14;;;;;;;24.17;13.43;;;10.10;99.90;;;;;;5002201;28;20033;-68
2023/12/13 12:01:40;;;;;;;25.50;13.05;;;10.10;99.90;;;;;;5009273;28;20480;-69
2023/12/13 12:04:07;;;;;;;24.58;13.93;;;10.10;99.90;;;;;;4991611;28;20125;-69
2023/12/13 12:06:32;;;;;;;27.80;13.18;;;10.10;99.90;;;;;;5010543;28;20077;-69
2023/12/13 12:09:02;;;;;;;28.45;13.25;;;10.10;99.90;;;;;;4996374;28;20081;-70
2023/12/13 12:11:28;;;;;;;27.13;13.65;;;10.20;99.90;;;;;;5013676;28;20030;-69
2023/12/13 12:13:55;;;;;;;30.25;13.60;;;10.20;99.90;;;;;;5012999;28;20558;-67
2023/12/13 12:16:20;;;;;;;33.45;14.73;;;10.20;99.90;;;;;;4990606;28;20046;-69
2023/12/13 12:18:46;;;;;;;29.05;13.80;;;10.20;99.90;;;;;;5006029;28;20395;-69
2023/12/13 12:21:12;;;;;;;24.70;13.63;;;10.30;99.90;;;;;;5012401;28;20038;-69
2023/12/13 12:23:39;;;;;;;31.83;14.95;;;10.20;99.90;;;;;;4995674;28;20514;-67
2023/12/13 12:26:07;;;;;;;27.80;14.27;;;10.20;99.90;;;;;;5015924;28;20515;-70
2023/12/13 12:28:33;;;;;;;29.85;14.20;;;10.20;99.90;;;;;;5005962;28;20045;-69
2023/12/13 12:30:58;;;;;;;29.90;14.65;;;10.30;99.90;;;;;;5013235;28;20038;-69
2023/12/13 12:33:24;;;;;;;25.05;14.30;;;10.30;99.90;;;;;;5009839;28;20046;-67
2023/12/13 12:35:49;;;;;;;27.20;13.20;;;10.30;99.90;;;;;;5013289;28;20057;-69
2023/12/13 12:38:15;;;;;;;31.00;14.90;;;10.30;99.90;;;;;;5012795;28;20044;-69
2023/12/13 12:40:42;;;;;;;30.17;14.25;;;10.30;99.90;;;;;;5014533;28;20030;-70
2023/12/13 12:43:08;;;;;;;32.03;14.55;;;10.30;99.90;;;;;;5003741;28;20703;-69
2023/12/13 12:45:34;;;;;;;27.05;14.50;;;10.30;99.90;;;;;;4994861;28;20125;-69